Airfield :
LOGIN :

Register | Disclaimer

   EN    FR    IT 

 










Legend :    VFR   Marginal VFR   IFR   Intensive IFR   Very Intensive IFR
Visi :
Ceiling :
>= 8 km
>= 3000ft
5 to 8 km
1000 to 3000 ft
1500m to 5 km
500 to 1000 ft
800 to 1500m
200 to 500 ft
< 800m
< 200 ft
Symbols :   Thunderstorms  Fog  Heavy snow  Heavy precipitations  Wind > 20 kt
SIGMETs :     Misc.  Thunderstorms  Icing  Turbulence  Mountain Waves  Volcanic Ashes







- Airport Elevation : 681 ft
- IATA code : LBA
- Download approach charts


EGNM - Leeds Bradford

CURRENT METAR :
  • 181950Z 05006KT 010V090 CAVOK 05/04 Q1030

EXPIRED METARs :
  • 181920Z 05005KT 020V080 CAVOK 05/04 Q1031
  • 181850Z 05005KT 020V090 CAVOK 06/05 Q1030
  • 181820Z 05006KT 020V090 CAVOK 06/04 Q1030
  • 181750Z 06005KT 020V110 CAVOK 06/05 Q1030
  • 181720Z 06006KT 030V090 CAVOK 06/05 Q1030

TAF TAF EGNM
Valid from the 18 at 18:00 until the 19 at 18:00 UTC


181700Z 1818/1918 06008KT 9999 FEW015
PROB40 1818/1822 8000 BKN014
BECMG 1822/1901 8000 BKN012
PROB30
TEMPO 1901/1909 4000 -RA BR BKN007
BECMG 1909/1911 9999 SCT015
PROB30
TEMPO 1911/1918 05015G25KT 7000 SHRA BKN012
ATIS : +44 113 250 9696 (x2489)
No reported NOTAMs for that airfield.



MET'MAP, your aeronautical weather chart ! - Copyright ORBIFLY December 2007 - Disclaimer

ORBIFLY MET'MAP TEAM :

Programming & Development : Alexandra Zaïnal
Concept & Development : Baudouin d'Aumeries
Co-Development & Prog : Marc-Olivier Méhu
Technical & hardware support : Manuel Goepfert

Contact : metmap@orbifly.com




SOURCES & CREDITS :

   NOAA